Time;durP1;ratioP1;P1;durP2;ratioP2;P2;SDS_P1;SDS_P2;PMS_P1;PMS_P2;Temp;Humidity;BMP_temperature;BMP_pressure;BME280_temperature;BME280_humidity;BME280_pressure;Samples;Min_cycle;Max_cycle;Signal;HPM_P1;HPM_P2
2020/12/27 11:44:39;;;;;;;2.75;1.95;;;;;;;;;;5111384;27;20346;-73
2020/12/27 11:47:06;;;;;;;4.07;2.05;;;;;;;;;;5111007;28;20036;-74
2020/12/27 11:49:31;;;;;;;4.53;2.30;;;;;;;;;;5109000;28;20032;-74
2020/12/27 11:51:57;;;;;;;3.63;2.17;;;;;;;;;;5111058;28;20374;-73
2020/12/27 11:54:22;;;;;;;3.67;1.83;;;;;;;;;;5111007;28;20423;-73
2020/12/27 11:56:48;;;;;;;6.07;3.88;;;;;;;;;;5110212;28;20485;-73
2020/12/27 11:59:14;;;;;;;5.72;2.28;;;;;;;;;;5110871;28;20028;-73
2020/12/27 12:01:41;;;;;;;4.93;2.70;;;;;;;;;;5110113;28;20541;-73
2020/12/27 12:04:06;;;;;;;4.10;2.30;;;;;;;;;;5110748;28;20119;-73
2020/12/27 12:06:32;;;;;;;4.57;2.28;;;;;;;;;;5109939;28;20115;-73
2020/12/27 12:08:57;;;;;;;4.05;2.60;;;;;;;;;;5110580;28;20038;-74
2020/12/27 12:11:23;;;;;;;4.22;2.33;;;;;;;;;;5110898;27;20039;-73
2020/12/27 12:13:48;;;;;;;13.18;4.85;;;;;;;;;;5109849;28;20032;-73
2020/12/27 12:16:19;;;;;;;8.10;3.10;;;;;;;;;;5109553;28;20400;-73
2020/12/27 12:18:44;;;;;;;3.97;2.30;;;;;;;;;;5109576;28;20031;-73
2020/12/27 12:21:11;;;;;;;3.20;2.05;;;;;;;;;;5110470;28;20031;-73
2020/12/27 12:23:36;;;;;;;3.55;2.05;;;;;;;;;;5110512;28;20035;-73
2020/12/27 12:26:02;;;;;;;3.85;2.90;;;;;;;;;;5109696;28;20591;-73
2020/12/27 12:28:28;;;;;;;3.63;2.20;;;;;;;;;;5110299;28;20047;-74
2020/12/27 12:30:54;;;;;;;3.17;1.83;;;;;;;;;;5110340;27;20035;-72
2020/12/27 12:33:20;;;;;;;4.85;2.50;;;;;;;;;;5101914;28;20028;-74
2020/12/27 12:35:46;;;;;;;2.67;1.70;;;;;;;;;;5109277;28;20036;-73
2020/12/27 12:38:11;;;;;;;6.28;2.28;;;;;;;;;;5104797;28;20044;-76
2020/12/27 12:40:36;;;;;;;2.47;1.70;;;;;;;;;;5095072;28;20044;-73
2020/12/27 12:43:02;;;;;;;6.00;2.38;;;;;;;;;;5110091;28;20051;-74
2020/12/27 12:45:27;;;;;;;2.58;1.60;;;;;;;;;;5110230;28;20040;-76
2020/12/27 12:47:53;;;;;;;3.72;2.60;;;;;;;;;;5109352;28;20473;-77
2020/12/27 12:50:18;;;;;;;2.35;1.50;;;;;;;;;;5110314;28;20031;-76
2020/12/27 12:52:44;;;;;;;7.00;3.28;;;;;;;;;;5105034;28;20531;-77
2020/12/27 12:55:09;;;;;;;3.95;2.20;;;;;;;;;;5083127;28;20045;-77
2020/12/27 12:57:35;;;;;;;2.55;1.92;;;;;;;;;;5076006;28;20040;-77
2020/12/27 13:00:00;;;;;;;6.05;2.88;;;;;;;;;;5096128;28;20078;-77
2020/12/27 13:02:26;;;;;;;3.08;1.70;;;;;;;;;;5096337;28;20132;-76
2020/12/27 13:04:51;;;;;;;2.55;1.88;;;;;;;;;;5095491;28;20043;-77
2020/12/27 13:07:20;;;;;;;3.78;2.25;;;;;;;;;;5094859;28;20227;-77
2020/12/27 13:09:45;;;;;;;3.17;2.17;;;;;;;;;;5096017;28;20112;-76
2020/12/27 13:12:10;;;;;;;1.60;1.50;;;;;;;;;;5095602;28;20082;-75
2020/12/27 13:14:36;;;;;;;3.30;2.10;;;;;;;;;;5095947;28;20089;-77
2020/12/27 13:17:02;;;;;;;3.20;1.90;;;;;;;;;;5095599;28;20540;-76
2020/12/27 13:19:27;;;;;;;2.35;1.60;;;;;;;;;;5096138;28;20048;-76
2020/12/27 13:21:53;;;;;;;6.78;3.38;;;;;;;;;;5093893;28;20406;-75
2020/12/27 13:24:18;;;;;;;11.45;2.50;;;;;;;;;;5096305;28;20473;-75
2020/12/27 13:26:44;;;;;;;5.50;1.92;;;;;;;;;;5096203;28;20614;-76
2020/12/27 13:29:10;;;;;;;7.85;3.13;;;;;;;;;;5095128;28;20505;-75
2020/12/27 13:31:39;;;;;;;4.72;2.70;;;;;;;;;;5095983;28;20065;-81
2020/12/27 13:34:05;;;;;;;3.20;1.92;;;;;;;;;;5095175;28;20028;-76
2020/12/27 13:36:31;;;;;;;5.85;2.42;;;;;;;;;;5095874;28;20069;-76
2020/12/27 13:38:57;;;;;;;2.83;1.88;;;;;;;;;;5095649;28;20100;-76
2020/12/27 13:41:22;;;;;;;30.83;16.38;;;;;;;;;;5094813;28;20031;-76
2020/12/27 13:43:48;;;;;;;2.75;1.65;;;;;;;;;;5095315;28;20050;-76
2020/12/27 13:46:16;;;;;;;2.20;1.73;;;;;;;;;;5094457;28;20040;-76
2020/12/27 13:48:44;;;;;;;2.33;1.70;;;;;;;;;;5095411;28;20044;-75
2020/12/27 13:51:10;;;;;;;4.72;1.80;;;;;;;;;;5095742;28;20039;-78
2020/12/27 13:53:37;;;;;;;4.13;1.88;;;;;;;;;;5094978;28;20034;-77
2020/12/27 13:56:03;;;;;;;1.70;1.50;;;;;;;;;;5095784;28;20043;-76
2020/12/27 13:58:29;;;;;;;3.67;1.80;;;;;;;;;;5094539;28;20036;-76
2020/12/27 14:00:54;;;;;;;3.35;1.50;;;;;;;;;;5095181;28;20072;-75
2020/12/27 14:03:20;;;;;;;2.08;1.85;;;;;;;;;;5093879;28;20055;-76
2020/12/27 14:05:45;;;;;;;8.27;1.95;;;;;;;;;;5093149;28;20036;-76
2020/12/27 14:08:11;;;;;;;4.38;2.17;;;;;;;;;;5094108;28;20036;-75
2020/12/27 14:10:37;;;;;;;1.70;1.38;;;;;;;;;;5094511;28;20082;-76
2020/12/27 14:13:03;;;;;;;2.65;1.52;;;;;;;;;;5093974;28;20028;-76
2020/12/27 14:15:28;;;;;;;3.60;1.85;;;;;;;;;;5094738;28;20067;-75
2020/12/27 14:17:55;;;;;;;5.80;3.05;;;;;;;;;;5094727;28;20161;-75
2020/12/27 14:20:20;;;;;;;6.15;3.88;;;;;;;;;;5093959;28;20127;-75
2020/12/27 14:22:46;;;;;;;7.82;3.38;;;;;;;;;;5094772;28;20074;-77
2020/12/27 14:25:11;;;;;;;3.55;2.50;;;;;;;;;;5093457;28;20077;-78
2020/12/27 14:27:36;;;;;;;5.65;2.90;;;;;;;;;;5095017;28;20385;-76
2020/12/27 14:30:02;;;;;;;3.83;1.98;;;;;;;;;;5096280;28;20497;-77
2020/12/27 14:32:28;;;;;;;3.65;1.52;;;;;;;;;;5090431;28;20032;-77
2020/12/27 14:34:53;;;;;;;2.47;1.40;;;;;;;;;;5074416;28;20063;-75
2020/12/27 14:37:19;;;;;;;3.47;1.90;;;;;;;;;;5073951;28;20046;-77
2020/12/27 14:39:45;;;;;;;5.40;2.78;;;;;;;;;;5074338;28;20043;-77
2020/12/27 14:42:11;;;;;;;6.20;2.13;;;;;;;;;;5074102;28;20052;-77
2020/12/27 14:44:36;;;;;;;3.55;2.08;;;;;;;;;;5092014;28;20036;-78
2020/12/27 14:47:01;;;;;;;2.28;1.58;;;;;;;;;;5093944;28;20036;-75
2020/12/27 14:49:27;;;;;;;3.42;1.80;;;;;;;;;;5093439;28;20054;-77
2020/12/27 14:51:52;;;;;;;5.00;2.20;;;;;;;;;;5092377;28;20039;-76
2020/12/27 14:54:17;;;;;;;2.50;1.73;;;;;;;;;;5092795;28;20028;-75
2020/12/27 14:56:43;;;;;;;3.78;2.17;;;;;;;;;;5093860;28;20056;-76
2020/12/27 14:59:08;;;;;;;1.63;1.52;;;;;;;;;;5093200;28;20039;-75
2020/12/27 15:01:38;;;;;;;2.78;1.85;;;;;;;;;;5093936;28;20044;-77
2020/12/27 15:04:04;;;;;;;4.70;2.25;;;;;;;;;;5082915;28;20021;-77
2020/12/27 15:06:29;;;;;;;1.70;1.40;;;;;;;;;;5073472;28;20409;-77
2020/12/27 15:08:54;;;;;;;2.80;1.65;;;;;;;;;;5074277;28;20533;-77
2020/12/27 15:11:20;;;;;;;6.68;3.85;;;;;;;;;;5073661;28;20052;-77
2020/12/27 15:13:45;;;;;;;2.20;1.70;;;;;;;;;;5087469;28;20373;-77
2020/12/27 15:16:10;;;;;;;6.63;2.88;;;;;;;;;;5093801;28;20043;-77
2020/12/27 15:18:36;;;;;;;5.28;2.15;;;;;;;;;;5091963;28;20040;-78
2020/12/27 15:21:01;;;;;;;3.13;1.92;;;;;;;;;;5073472;28;20174;-77
2020/12/27 15:23:28;;;;;;;3.42;1.80;;;;;;;;;;5078426;28;20043;-77
2020/12/27 15:25:56;;;;;;;1.95;1.60;;;;;;;;;;5085572;28;20369;-77
2020/12/27 15:28:21;;;;;;;2.70;1.88;;;;;;;;;;5093419;28;20091;-77
2020/12/27 15:30:46;;;;;;;3.47;2.10;;;;;;;;;;5093545;28;20508;-77
2020/12/27 15:33:12;;;;;;;5.35;2.10;;;;;;;;;;5093391;28;20070;-77
2020/12/27 15:35:37;;;;;;;10.35;4.80;;;;;;;;;;5093463;28;20032;-78
2020/12/27 15:38:03;;;;;;;4.00;2.10;;;;;;;;;;5093346;28;20092;-77
2020/12/27 15:40:28;;;;;;;2.58;1.90;;;;;;;;;;5093441;28;20073;-77
2020/12/27 15:42:54;;;;;;;2.13;1.63;;;;;;;;;;5089647;28;20132;-77
2020/12/27 15:45:19;;;;;;;2.28;1.88;;;;;;;;;;5076531;28;20523;-77
2020/12/27 15:47:44;;;;;;;2.47;1.92;;;;;;;;;;5081661;28;20032;-79
2020/12/27 15:50:10;;;;;;;4.15;2.05;;;;;;;;;;5084615;28;20424;-77
2020/12/27 15:52:36;;;;;;;3.88;2.30;;;;;;;;;;5064748;28;20427;-77
2020/12/27 15:55:01;;;;;;;3.70;2.28;;;;;;;;;;5082085;28;20137;-82
2020/12/27 15:57:27;;;;;;;7.75;2.78;;;;;;;;;;5083822;28;20085;-81
2020/12/27 15:59:53;;;;;;;3.13;2.00;;;;;;;;;;5086134;28;20036;-77
2020/12/27 16:02:19;;;;;;;2.97;2.47;;;;;;;;;;5083580;28;20488;-78
2020/12/27 16:04:45;;;;;;;3.53;2.55;;;;;;;;;;5080864;28;20052;-76
2020/12/27 16:07:11;;;;;;;2.70;1.80;;;;;;;;;;5081469;28;20056;-76
2020/12/27 16:09:36;;;;;;;5.40;1.90;;;;;;;;;;5083928;28;20492;-77
2020/12/27 16:12:02;;;;;;;3.80;2.38;;;;;;;;;;5083217;28;20032;-77
2020/12/27 16:14:27;;;;;;;1.98;1.63;;;;;;;;;;5086909;28;20032;-77
2020/12/27 16:16:52;;;;;;;4.40;2.30;;;;;;;;;;5092675;28;20020;-78
2020/12/27 16:19:18;;;;;;;3.53;1.70;;;;;;;;;;5091571;28;20036;-77
2020/12/27 16:21:47;;;;;;;3.28;2.13;;;;;;;;;;5093261;28;20042;-77
2020/12/27 16:24:13;;;;;;;4.20;2.10;;;;;;;;;;5092754;28;20058;-78
2020/12/27 16:26:38;;;;;;;3.00;1.95;;;;;;;;;;5091936;28;20485;-77
2020/12/27 16:29:04;;;;;;;4.30;2.17;;;;;;;;;;5093207;28;20042;-77
2020/12/27 16:31:30;;;;;;;3.85;1.95;;;;;;;;;;5094876;28;20032;-76
2020/12/27 16:33:57;;;;;;;3.33;2.00;;;;;;;;;;5096523;28;20416;-76
2020/12/27 16:36:22;;;;;;;4.38;2.00;;;;;;;;;;5105555;28;20403;-77
2020/12/27 16:38:47;;;;;;;3.17;1.80;;;;;;;;;;5116814;28;20084;-77
2020/12/27 16:41:20;;;;;;;3.60;2.05;;;;;;;;;;5115729;28;20035;-77
2020/12/27 16:43:46;;;;;;;3.45;1.70;;;;;;;;;;5098174;28;20482;-77
2020/12/27 16:46:12;;;;;;;3.65;1.85;;;;;;;;;;5094005;28;20548;-76
2020/12/27 16:48:39;;;;;;;3.65;1.65;;;;;;;;;;5096546;28;20127;-78
2020/12/27 16:51:08;;;;;;;1.75;1.30;;;;;;;;;;5096711;28;20032;-76
2020/12/27 16:53:34;;;;;;;3.13;1.80;;;;;;;;;;5096612;28;20419;-76
2020/12/27 16:56:04;;;;;;;3.90;2.20;;;;;;;;;;5096611;28;20090;-75
2020/12/27 16:58:30;;;;;;;12.73;4.45;;;;;;;;;;5096895;28;20093;-77
2020/12/27 17:00:55;;;;;;;11.60;3.55;;;;;;;;;;5095420;28;20032;-76
2020/12/27 17:03:20;;;;;;;7.15;3.30;;;;;;;;;;5096225;28;20063;-76
2020/12/27 17:05:46;;;;;;;5.30;2.35;;;;;;;;;;5096176;28;20046;-75
2020/12/27 17:08:11;;;;;;;5.57;2.58;;;;;;;;;;5095932;28;20055;-75
2020/12/27 17:10:40;;;;;;;3.45;2.15;;;;;;;;;;5096240;28;20036;-75
2020/12/27 17:13:05;;;;;;;2.30;1.75;;;;;;;;;;5095780;28;20024;-78
2020/12/27 17:15:31;;;;;;;2.78;1.98;;;;;;;;;;5089879;28;20051;-77
2020/12/27 17:17:57;;;;;;;3.38;2.35;;;;;;;;;;5076064;28;20037;-79
2020/12/27 17:20:22;;;;;;;3.03;1.67;;;;;;;;;;5075842;28;20033;-77
2020/12/27 17:22:47;;;;;;;4.13;2.15;;;;;;;;;;5073233;28;20362;-77
2020/12/27 17:25:13;;;;;;;2.38;1.80;;;;;;;;;;5075311;28;20079;-77
2020/12/27 17:27:38;;;;;;;2.85;2.10;;;;;;;;;;5078448;28;20032;-78
2020/12/27 17:30:04;;;;;;;3.30;1.63;;;;;;;;;;5077275;28;20033;-77
2020/12/27 17:32:29;;;;;;;2.58;1.73;;;;;;;;;;5078061;28;20036;-80
2020/12/27 17:34:54;;;;;;;4.13;2.15;;;;;;;;;;5079211;28;20044;-77
2020/12/27 17:37:20;;;;;;;2.83;1.88;;;;;;;;;;5078340;28;20132;-78
2020/12/27 17:39:45;;;;;;;3.00;1.90;;;;;;;;;;5061378;28;20040;-78
2020/12/27 17:42:10;;;;;;;3.40;1.80;;;;;;;;;;5077302;28;20067;-77
2020/12/27 17:44:36;;;;;;;2.28;1.60;;;;;;;;;;5075454;28;20040;-75
2020/12/27 17:47:01;;;;;;;2.78;2.05;;;;;;;;;;5110749;28;20047;-77
2020/12/27 17:49:27;;;;;;;2.75;1.88;;;;;;;;;;5115843;28;20107;-77
2020/12/27 17:51:52;;;;;;;2.53;1.70;;;;;;;;;;5115663;28;20035;-75
2020/12/27 17:54:17;;;;;;;2.60;1.88;;;;;;;;;;5114986;28;20160;-74
2020/12/27 17:56:43;;;;;;;3.40;1.88;;;;;;;;;;5115405;28;20050;-74
2020/12/27 17:59:08;;;;;;;2.50;1.42;;;;;;;;;;5115342;28;20040;-73
2020/12/27 18:01:33;;;;;;;3.35;2.17;;;;;;;;;;5115441;28;20035;-74
2020/12/27 18:03:59;;;;;;;2.78;2.13;;;;;;;;;;5115420;28;20031;-76
2020/12/27 18:06:25;;;;;;;4.65;2.60;;;;;;;;;;5114706;27;20035;-74
2020/12/27 18:08:51;;;;;;;3.75;2.65;;;;;;;;;;5115112;28;20122;-74
2020/12/27 18:11:21;;;;;;;3.08;2.20;;;;;;;;;;5115242;28;20036;-74
2020/12/27 18:13:47;;;;;;;2.75;1.95;;;;;;;;;;5115080;28;20066;-74
2020/12/27 18:16:12;;;;;;;2.88;2.30;;;;;;;;;;5103817;28;20040;-74
2020/12/27 18:18:38;;;;;;;3.17;1.90;;;;;;;;;;5093590;28;20361;-74
2020/12/27 18:21:13;;;;;;;3.97;2.00;;;;;;;;;;5093772;28;20036;-74
2020/12/27 18:23:38;;;;;;;4.28;2.60;;;;;;;;;;5085323;28;20027;-74
2020/12/27 18:26:04;;;;;;;3.45;2.10;;;;;;;;;;5084576;28;20371;-74
2020/12/27 18:28:29;;;;;;;6.30;2.92;;;;;;;;;;5088352;28;20032;-74
2020/12/27 18:30:55;;;;;;;3.08;2.13;;;;;;;;;;5087897;28;20482;-74
2020/12/27 18:33:21;;;;;;;5.15;2.95;;;;;;;;;;5083023;28;20040;-75
2020/12/27 18:35:46;;;;;;;5.97;2.38;;;;;;;;;;5083861;28;20040;-74
2020/12/27 18:38:12;;;;;;;5.03;2.15;;;;;;;;;;5084410;28;20086;-74
2020/12/27 18:40:37;;;;;;;2.30;1.90;;;;;;;;;;5082966;28;20033;-74
2020/12/27 18:43:02;;;;;;;9.02;5.15;;;;;;;;;;5083751;28;20047;-75
2020/12/27 18:45:28;;;;;;;3.20;1.98;;;;;;;;;;5083539;28;20499;-74
2020/12/27 18:47:53;;;;;;;2.88;2.05;;;;;;;;;;5082447;28;20128;-74
2020/12/27 18:50:19;;;;;;;5.10;2.50;;;;;;;;;;5084651;28;20028;-74
2020/12/27 18:52:44;;;;;;;3.65;2.20;;;;;;;;;;5082527;28;20398;-74
2020/12/27 18:55:09;;;;;;;3.25;2.20;;;;;;;;;;5083734;28;20037;-74
2020/12/27 18:57:35;;;;;;;2.00;1.63;;;;;;;;;;5082305;28;20036;-74
2020/12/27 19:00:00;;;;;;;2.08;1.80;;;;;;;;;;5084450;28;20115;-74
2020/12/27 19:02:25;;;;;;;3.20;2.05;;;;;;;;;;5081960;28;20101;-74
2020/12/27 19:04:51;;;;;;;3.92;2.30;;;;;;;;;;5083934;28;20078;-74
2020/12/27 19:07:16;;;;;;;3.63;2.20;;;;;;;;;;5081748;28;20098;-73
2020/12/27 19:09:41;;;;;;;4.32;2.00;;;;;;;;;;5083555;28;20492;-74
2020/12/27 19:12:12;;;;;;;2.60;1.90;;;;;;;;;;5083250;28;20066;-75
2020/12/27 19:14:37;;;;;;;3.28;2.15;;;;;;;;;;5087844;28;20054;-74
2020/12/27 19:17:03;;;;;;;6.53;3.65;;;;;;;;;;5093690;28;20028;-75
2020/12/27 19:19:28;;;;;;;2.67;1.60;;;;;;;;;;5093755;28;20092;-74
2020/12/27 19:21:54;;;;;;;2.45;1.63;;;;;;;;;;5093517;28;20165;-75
2020/12/27 19:24:20;;;;;;;4.00;2.78;;;;;;;;;;5093540;28;20039;-74
2020/12/27 19:26:45;;;;;;;2.33;1.75;;;;;;;;;;5092187;28;20032;-74
2020/12/27 19:29:10;;;;;;;3.30;2.22;;;;;;;;;;5092691;28;20485;-74
2020/12/27 19:31:37;;;;;;;4.03;1.92;;;;;;;;;;5092337;28;20043;-74
2020/12/27 19:34:03;;;;;;;2.00;1.65;;;;;;;;;;5093350;28;20089;-74
2020/12/27 19:36:28;;;;;;;2.58;2.03;;;;;;;;;;5093087;28;20047;-74
2020/12/27 19:38:54;;;;;;;2.30;1.50;;;;;;;;;;5093306;28;20541;-74
2020/12/27 19:41:19;;;;;;;4.00;2.35;;;;;;;;;;5093340;28;20070;-74
2020/12/27 19:43:45;;;;;;;4.40;2.58;;;;;;;;;;5091922;28;20051;-74
2020/12/27 19:46:16;;;;;;;3.53;1.98;;;;;;;;;;5092311;28;20138;-74
2020/12/27 19:48:42;;;;;;;3.60;2.15;;;;;;;;;;5093082;28;20046;-74
2020/12/27 19:51:08;;;;;;;3.45;2.30;;;;;;;;;;5091897;28;20031;-74
2020/12/27 19:53:33;;;;;;;3.92;2.35;;;;;;;;;;5091658;28;20458;-74
2020/12/27 19:55:59;;;;;;;2.45;2.10;;;;;;;;;;5093068;28;20051;-73
2020/12/27 19:58:25;;;;;;;3.45;2.53;;;;;;;;;;5093333;28;20040;-74
2020/12/27 20:00:50;;;;;;;3.53;2.25;;;;;;;;;;5093067;28;20085;-74
2020/12/27 20:03:16;;;;;;;5.97;2.88;;;;;;;;;;5093093;28;20032;-74
2020/12/27 20:05:41;;;;;;;4.45;2.78;;;;;;;;;;5095749;28;20101;-74
2020/12/27 20:08:07;;;;;;;3.58;2.15;;;;;;;;;;5097002;28;20036;-74
2020/12/27 20:10:32;;;;;;;3.05;1.90;;;;;;;;;;5096827;28;20039;-74
2020/12/27 20:13:05;;;;;;;3.50;1.77;;;;;;;;;;5096616;28;20130;-74
2020/12/27 20:15:31;;;;;;;2.00;1.67;;;;;;;;;;5095295;28;20046;-74
2020/12/27 20:17:56;;;;;;;1.52;1.42;;;;;;;;;;5096725;28;20106;-73
2020/12/27 20:20:21;;;;;;;5.30;3.13;;;;;;;;;;5096686;28;20042;-74
2020/12/27 20:22:47;;;;;;;3.88;2.20;;;;;;;;;;5096946;28;20157;-74
2020/12/27 20:25:12;;;;;;;3.33;2.13;;;;;;;;;;5096737;28;20040;-74
2020/12/27 20:27:38;;;;;;;1.80;1.52;;;;;;;;;;5096997;28;20040;-74
2020/12/27 20:30:03;;;;;;;3.22;2.13;;;;;;;;;;5096660;28;20042;-73
2020/12/27 20:32:29;;;;;;;4.15;2.20;;;;;;;;;;5094522;28;20054;-74
2020/12/27 20:34:54;;;;;;;2.72;1.95;;;;;;;;;;5096444;28;20039;-74
2020/12/27 20:37:19;;;;;;;4.07;2.47;;;;;;;;;;5096251;28;20050;-74
2020/12/27 20:39:45;;;;;;;2.70;1.75;;;;;;;;;;5096661;28;20055;-73
2020/12/27 20:42:10;;;;;;;4.38;2.03;;;;;;;;;;5096526;28;20067;-74
2020/12/27 20:44:36;;;;;;;2.40;2.05;;;;;;;;;;5095042;28;20461;-72
2020/12/27 20:47:01;;;;;;;2.50;2.00;;;;;;;;;;5096325;28;20142;-72
2020/12/27 20:49:26;;;;;;;2.05;1.75;;;;;;;;;;5096277;28;20040;-72
2020/12/27 20:51:52;;;;;;;3.25;2.38;;;;;;;;;;5096307;28;20039;-72
2020/12/27 20:54:17;;;;;;;4.05;2.55;;;;;;;;;;5096235;28;20346;-72
2020/12/27 20:56:44;;;;;;;4.50;2.20;;;;;;;;;;5096398;28;20103;-72
2020/12/27 20:59:09;;;;;;;3.40;2.20;;;;;;;;;;5095284;28;20469;-72
2020/12/27 21:01:35;;;;;;;2.20;1.63;;;;;;;;;;5096036;28;20089;-72
2020/12/27 21:04:01;;;;;;;2.80;2.15;;;;;;;;;;5096431;28;20362;-72
2020/12/27 21:06:27;;;;;;;3.05;2.05;;;;;;;;;;5094661;28;20030;-72
2020/12/27 21:08:52;;;;;;;3.35;2.30;;;;;;;;;;5095774;28;20508;-72
2020/12/27 21:11:18;;;;;;;1.80;1.52;;;;;;;;;;5095577;28;20043;-72
2020/12/27 21:13:43;;;;;;;2.88;1.77;;;;;;;;;;5095409;28;20016;-72
2020/12/27 21:16:10;;;;;;;2.13;1.73;;;;;;;;;;5094822;28;20072;-72
2020/12/27 21:18:36;;;;;;;4.40;2.28;;;;;;;;;;5095325;28;20051;-72
2020/12/27 21:21:03;;;;;;;3.03;1.83;;;;;;;;;;5095087;28;20128;-72
2020/12/27 21:23:29;;;;;;;3.67;1.80;;;;;;;;;;5095382;28;20485;-72
2020/12/27 21:25:54;;;;;;;3.75;2.10;;;;;;;;;;5094675;28;20040;-72
2020/12/27 21:28:20;;;;;;;2.45;1.65;;;;;;;;;;5095727;28;20032;-72
2020/12/27 21:30:46;;;;;;;3.35;1.55;;;;;;;;;;5095335;28;20396;-72
2020/12/27 21:33:11;;;;;;;2.95;1.63;;;;;;;;;;5095597;28;20039;-72
2020/12/27 21:35:36;;;;;;;2.42;1.70;;;;;;;;;;5095281;28;20035;-72
2020/12/27 21:38:02;;;;;;;2.05;1.65;;;;;;;;;;5095277;28;20484;-72
2020/12/27 21:40:27;;;;;;;2.58;1.85;;;;;;;;;;5095250;28;20043;-72
2020/12/27 21:42:53;;;;;;;2.45;1.65;;;;;;;;;;5095316;28;20051;-72
2020/12/27 21:45:18;;;;;;;2.15;1.50;;;;;;;;;;5094202;28;20036;-72
2020/12/27 21:47:44;;;;;;;2.20;1.83;;;;;;;;;;5095141;28;20347;-72
2020/12/27 21:50:10;;;;;;;5.53;1.98;;;;;;;;;;5095336;28;20412;-72
2020/12/27 21:52:35;;;;;;;3.38;1.85;;;;;;;;;;5095214;28;20477;-72
2020/12/27 21:55:01;;;;;;;3.25;2.17;;;;;;;;;;5094386;28;20040;-73
2020/12/27 21:57:26;;;;;;;3.28;2.15;;;;;;;;;;5094801;28;20079;-73
2020/12/27 21:59:52;;;;;;;2.28;1.80;;;;;;;;;;5094615;28;20545;-73
2020/12/27 22:02:17;;;;;;;2.63;1.85;;;;;;;;;;5094778;28;20472;-73
2020/12/27 22:04:47;;;;;;;3.20;1.67;;;;;;;;;;5094866;28;20090;-72
2020/12/27 22:07:12;;;;;;;2.67;1.83;;;;;;;;;;5094637;28;20048;-73
2020/12/27 22:09:38;;;;;;;3.05;1.67;;;;;;;;;;5092903;28;20076;-73
2020/12/27 22:12:03;;;;;;;2.60;1.77;;;;;;;;;;5094634;28;20482;-72
2020/12/27 22:14:29;;;;;;;2.97;2.00;;;;;;;;;;5094836;28;20051;-72
2020/12/27 22:17:01;;;;;;;3.28;1.75;;;;;;;;;;5092479;28;20192;-72
2020/12/27 22:19:27;;;;;;;2.25;1.52;;;;;;;;;;5094478;28;20846;-73
2020/12/27 22:21:52;;;;;;;3.20;1.80;;;;;;;;;;5094693;28;20052;-73
2020/12/27 22:24:18;;;;;;;2.50;1.80;;;;;;;;;;5094713;28;20057;-72
2020/12/27 22:26:50;;;;;;;3.10;1.60;;;;;;;;;;5093711;28;20032;-73
2020/12/27 22:29:16;;;;;;;2.90;1.75;;;;;;;;;;5094191;28;20042;-72
2020/12/27 22:31:42;;;;;;;3.00;2.00;;;;;;;;;;5093686;28;20035;-73
2020/12/27 22:34:07;;;;;;;3.42;1.85;;;;;;;;;;5094334;28;20066;-73
2020/12/27 22:36:33;;;;;;;3.33;1.95;;;;;;;;;;5092156;28;20112;-73
2020/12/27 22:38:59;;;;;;;5.60;1.90;;;;;;;;;;5093275;28;20504;-73
2020/12/27 22:41:24;;;;;;;2.33;1.80;;;;;;;;;;5094418;28;20048;-73
2020/12/27 22:43:49;;;;;;;2.22;1.70;;;;;;;;;;5093966;28;20047;-72
2020/12/27 22:46:15;;;;;;;1.50;1.40;;;;;;;;;;5092924;28;20042;-73
2020/12/27 22:48:40;;;;;;;3.22;1.92;;;;;;;;;;5094030;28;20093;-73
2020/12/27 22:51:11;;;;;;;3.08;1.77;;;;;;;;;;5093088;28;20035;-73
2020/12/27 22:53:37;;;;;;;5.88;1.88;;;;;;;;;;5093607;28;20042;-73
2020/12/27 22:56:02;;;;;;;2.30;1.58;;;;;;;;;;5094128;28;20048;-73
2020/12/27 22:58:27;;;;;;;2.95;1.75;;;;;;;;;;5092546;28;20032;-73
2020/12/27 23:00:53;;;;;;;3.55;1.83;;;;;;;;;;5092755;28;20108;-73
2020/12/27 23:03:18;;;;;;;1.58;1.40;;;;;;;;;;5094181;28;20024;-72
2020/12/27 23:05:44;;;;;;;5.15;2.67;;;;;;;;;;5093945;28;20047;-73
2020/12/27 23:08:10;;;;;;;4.32;1.45;;;;;;;;;;5093804;28;20057;-73
2020/12/27 23:10:36;;;;;;;2.83;1.60;;;;;;;;;;5093770;28;20615;-73
2020/12/27 23:13:02;;;;;;;1.80;1.55;;;;;;;;;;5093697;28;20032;-72
2020/12/27 23:15:27;;;;;;;3.15;1.92;;;;;;;;;;5093999;28;20044;-73
2020/12/27 23:17:52;;;;;;;2.22;1.60;;;;;;;;;;5093779;28;20044;-73
2020/12/27 23:20:19;;;;;;;3.00;1.70;;;;;;;;;;5093680;28;20040;-73
2020/12/27 23:22:44;;;;;;;2.33;1.70;;;;;;;;;;5093634;28;20034;-73
2020/12/27 23:25:11;;;;;;;1.95;1.60;;;;;;;;;;5093703;28;20341;-73
2020/12/27 23:27:39;;;;;;;2.13;1.75;;;;;;;;;;5093437;28;20036;-73
2020/12/27 23:30:08;;;;;;;1.60;1.50;;;;;;;;;;5093525;28;20050;-73
2020/12/27 23:32:33;;;;;;;2.92;1.45;;;;;;;;;;5093371;28;20036;-73
2020/12/27 23:34:59;;;;;;;2.38;1.73;;;;;;;;;;5093421;28;20047;-73
2020/12/27 23:37:24;;;;;;;1.85;1.70;;;;;;;;;;5093300;28;20040;-73
2020/12/27 23:39:50;;;;;;;1.50;1.33;;;;;;;;;;5093222;28;20046;-73
2020/12/27 23:42:16;;;;;;;2.33;1.65;;;;;;;;;;5093198;28;20079;-73
2020/12/27 23:44:41;;;;;;;2.10;1.38;;;;;;;;;;5091953;28;20460;-73
2020/12/27 23:47:06;;;;;;;1.98;1.45;;;;;;;;;;5092294;28;20040;-73
2020/12/27 23:49:32;;;;;;;1.23;1.10;;;;;;;;;;5092214;28;20120;-73
2020/12/27 23:51:57;;;;;;;1.88;1.50;;;;;;;;;;5093255;28;20036;-73
2020/12/27 23:54:23;;;;;;;2.08;1.52;;;;;;;;;;5093221;28;20351;-73
2020/12/27 23:56:48;;;;;;;1.40;1.30;;;;;;;;;;5093225;28;20155;-73
2020/12/27 23:59:16;;;;;;;1.63;1.40;;;;;;;;;;5093057;28;20090;-73
